sensor_id;sensor_type;location;lat;lon;timestamp;temperature;humidity
14934;DHT22;7560;51.364;12.384;2023-03-12T00:01:45;0.20;99.90
14934;DHT22;7560;51.364;12.384;2023-03-12T00:06:47;0.20;99.90
14934;DHT22;7560;51.364;12.384;2023-03-12T00:11:49;0.20;99.90
14934;DHT22;7560;51.364;12.384;2023-03-12T00:16:51;0.20;99.90
14934;DHT22;7560;51.364;12.384;2023-03-12T00:21:52;0.10;99.90
14934;DHT22;7560;51.364;12.384;2023-03-12T00:26:54;0.10;99.90
14934;DHT22;7560;51.364;12.384;2023-03-12T00:31:56;0.10;99.90
14934;DHT22;7560;51.364;12.384;2023-03-12T00:36:57;0.00;99.90
14934;DHT22;7560;51.364;12.384;2023-03-12T00:42:00;0.00;99.90
14934;DHT22;7560;51.364;12.384;2023-03-12T00:47:02;0.00;99.90
14934;DHT22;7560;51.364;12.384;2023-03-12T00:52:04;0.00;99.90
14934;DHT22;7560;51.364;12.384;2023-03-12T00:57:06;0.00;99.90
14934;DHT22;7560;51.364;12.384;2023-03-12T01:02:08;-0.10;99.90
14934;DHT22;7560;51.364;12.384;2023-03-12T01:07:10;-0.10;99.90
14934;DHT22;7560;51.364;12.384;2023-03-12T01:12:11;-0.10;99.90
14934;DHT22;7560;51.364;12.384;2023-03-12T01:17:13;-0.10;99.90
14934;DHT22;7560;51.364;12.384;2023-03-12T01:22:15;-0.10;99.90
14934;DHT22;7560;51.364;12.384;2023-03-12T01:27:17;-0.20;99.90
14934;DHT22;7560;51.364;12.384;2023-03-12T01:32:18;-0.20;99.90
14934;DHT22;7560;51.364;12.384;2023-03-12T01:37:20;-0.20;99.90
14934;DHT22;7560;51.364;12.384;2023-03-12T01:42:22;-0.20;99.90
14934;DHT22;7560;51.364;12.384;2023-03-12T01:47:24;-0.20;99.90
14934;DHT22;7560;51.364;12.384;2023-03-12T01:52:29;-0.20;99.90
14934;DHT22;7560;51.364;12.384;2023-03-12T01:57:49;-0.30;99.90
14934;DHT22;7560;51.364;12.384;2023-03-12T02:02:55;-0.30;99.90
14934;DHT22;7560;51.364;12.384;2023-03-12T02:08:00;-0.30;99.90
14934;DHT22;7560;51.364;12.384;2023-03-12T02:13:02;-0.30;99.90
14934;DHT22;7560;51.364;12.384;2023-03-12T02:18:08;-0.30;99.90
14934;DHT22;7560;51.364;12.384;2023-03-12T02:28:19;-0.40;99.90
14934;DHT22;7560;51.364;12.384;2023-03-12T02:33:22;-0.40;99.90
14934;DHT22;7560;51.364;12.384;2023-03-12T02:38:39;-0.40;99.90
14934;DHT22;7560;51.364;12.384;2023-03-12T02:43:45;-0.40;99.90
14934;DHT22;7560;51.364;12.384;2023-03-12T02:48:47;-0.40;99.90
14934;DHT22;7560;51.364;12.384;2023-03-12T02:53:49;-0.40;99.90
14934;DHT22;7560;51.364;12.384;2023-03-12T02:58:55;-0.50;99.90
14934;DHT22;7560;51.364;12.384;2023-03-12T03:03:57;-0.40;99.90
14934;DHT22;7560;51.364;12.384;2023-03-12T03:08:58;-0.40;99.90
14934;DHT22;7560;51.364;12.384;2023-03-12T03:14:00;-0.50;99.90
14934;DHT22;7560;51.364;12.384;2023-03-12T03:19:04;-0.50;99.90
14934;DHT22;7560;51.364;12.384;2023-03-12T03:24:06;-0.50;99.90
14934;DHT22;7560;51.364;12.384;2023-03-12T03:29:08;-0.50;99.90
14934;DHT22;7560;51.364;12.384;2023-03-12T03:34:10;-0.50;99.90
14934;DHT22;7560;51.364;12.384;2023-03-12T03:39:11;-0.50;99.90
14934;DHT22;7560;51.364;12.384;2023-03-12T03:44:13;-0.40;99.90
14934;DHT22;7560;51.364;12.384;2023-03-12T03:49:15;-0.50;99.90
14934;DHT22;7560;51.364;12.384;2023-03-12T03:54:17;-0.50;99.90
14934;DHT22;7560;51.364;12.384;2023-03-12T03:59:19;-0.50;99.90
14934;DHT22;7560;51.364;12.384;2023-03-12T04:04:21;-0.50;99.90
14934;DHT22;7560;51.364;12.384;2023-03-12T04:09:23;-0.60;99.90
14934;DHT22;7560;51.364;12.384;2023-03-12T04:14:25;-0.60;99.90
14934;DHT22;7560;51.364;12.384;2023-03-12T04:19:27;-0.60;99.90
14934;DHT22;7560;51.364;12.384;2023-03-12T04:24:29;-0.60;99.90
14934;DHT22;7560;51.364;12.384;2023-03-12T04:29:31;-0.60;99.90
14934;DHT22;7560;51.364;12.384;2023-03-12T04:34:33;-0.60;99.90
14934;DHT22;7560;51.364;12.384;2023-03-12T04:44:50;-0.70;99.90
14934;DHT22;7560;51.364;12.384;2023-03-12T04:49:53;-0.70;99.90
14934;DHT22;7560;51.364;12.384;2023-03-12T04:54:54;-0.70;99.90
14934;DHT22;7560;51.364;12.384;2023-03-12T04:59:56;-0.70;99.90
14934;DHT22;7560;51.364;12.384;2023-03-12T05:04:58;-0.70;99.90
14934;DHT22;7560;51.364;12.384;2023-03-12T05:10:00;-0.80;99.90
14934;DHT22;7560;51.364;12.384;2023-03-12T05:15:01;-0.80;99.90
14934;DHT22;7560;51.364;12.384;2023-03-12T05:20:03;-0.80;99.90
14934;DHT22;7560;51.364;12.384;2023-03-12T05:25:07;-0.80;99.90
14934;DHT22;7560;51.364;12.384;2023-03-12T05:30:09;-0.80;99.90
14934;DHT22;7560;51.364;12.384;2023-03-12T05:35:11;-0.80;99.90
14934;DHT22;7560;51.364;12.384;2023-03-12T05:40:13;-0.80;99.90
14934;DHT22;7560;51.364;12.384;2023-03-12T05:45:15;-0.80;99.90
14934;DHT22;7560;51.364;12.384;2023-03-12T05:50:21;-0.70;99.90
14934;DHT22;7560;51.364;12.384;2023-03-12T05:55:23;-0.70;99.90
14934;DHT22;7560;51.364;12.384;2023-03-12T06:00:25;-0.70;99.90
14934;DHT22;7560;51.364;12.384;2023-03-12T06:05:27;-0.60;99.90
14934;DHT22;7560;51.364;12.384;2023-03-12T06:10:29;-0.50;99.90
14934;DHT22;7560;51.364;12.384;2023-03-12T06:15:30;-0.40;99.90
14934;DHT22;7560;51.364;12.384;2023-03-12T06:20:32;-0.40;99.90
14934;DHT22;7560;51.364;12.384;2023-03-12T06:25:34;-0.30;99.90
14934;DHT22;7560;51.364;12.384;2023-03-12T06:30:36;-0.20;99.90
14934;DHT22;7560;51.364;12.384;2023-03-12T06:35:37;0.20;99.90
14934;DHT22;7560;51.364;12.384;2023-03-12T06:40:39;0.40;99.90
14934;DHT22;7560;51.364;12.384;2023-03-12T06:45:41;0.70;99.90
14934;DHT22;7560;51.364;12.384;2023-03-12T06:50:42;0.80;99.90
14934;DHT22;7560;51.364;12.384;2023-03-12T06:55:45;0.90;99.90
14934;DHT22;7560;51.364;12.384;2023-03-12T07:00:46;1.00;99.90
14934;DHT22;7560;51.364;12.384;2023-03-12T07:05:50;1.10;99.90
14934;DHT22;7560;51.364;12.384;2023-03-12T07:10:51;1.20;99.90
14934;DHT22;7560;51.364;12.384;2023-03-12T07:15:53;1.40;99.90
14934;DHT22;7560;51.364;12.384;2023-03-12T07:20:55;1.60;99.90
14934;DHT22;7560;51.364;12.384;2023-03-12T07:25:57;1.80;99.90
14934;DHT22;7560;51.364;12.384;2023-03-12T07:31:01;2.00;99.90
14934;DHT22;7560;51.364;12.384;2023-03-12T07:36:03;2.20;99.90
14934;DHT22;7560;51.364;12.384;2023-03-12T07:41:05;2.60;99.90
14934;DHT22;7560;51.364;12.384;2023-03-12T07:46:07;2.80;99.90
14934;DHT22;7560;51.364;12.384;2023-03-12T07:51:09;3.00;99.90
14934;DHT22;7560;51.364;12.384;2023-03-12T07:56:11;3.20;99.90
14934;DHT22;7560;51.364;12.384;2023-03-12T08:01:13;3.50;99.90
14934;DHT22;7560;51.364;12.384;2023-03-12T08:06:15;3.70;99.90
14934;DHT22;7560;51.364;12.384;2023-03-12T08:11:18;3.80;99.90
14934;DHT22;7560;51.364;12.384;2023-03-12T08:16:19;3.90;99.90
14934;DHT22;7560;51.364;12.384;2023-03-12T08:21:25;4.20;99.90
14934;DHT22;7560;51.364;12.384;2023-03-12T08:26:28;4.40;99.90
14934;DHT22;7560;51.364;12.384;2023-03-12T08:31:30;4.50;99.90
14934;DHT22;7560;51.364;12.384;2023-03-12T08:36:32;4.70;99.90
14934;DHT22;7560;51.364;12.384;2023-03-12T08:41:34;4.80;99.90
14934;DHT22;7560;51.364;12.384;2023-03-12T08:46:36;5.10;99.90
14934;DHT22;7560;51.364;12.384;2023-03-12T08:51:38;5.40;99.90
14934;DHT22;7560;51.364;12.384;2023-03-12T08:56:39;5.60;99.90
14934;DHT22;7560;51.364;12.384;2023-03-12T09:01:45;5.80;99.90
14934;DHT22;7560;51.364;12.384;2023-03-12T09:06:48;6.10;99.90
14934;DHT22;7560;51.364;12.384;2023-03-12T09:11:50;6.30;99.90
14934;DHT22;7560;51.364;12.384;2023-03-12T09:16:54;6.30;99.90
14934;DHT22;7560;51.364;12.384;2023-03-12T09:21:57;6.40;99.90
14934;DHT22;7560;51.364;12.384;2023-03-12T09:27:00;6.30;99.90
14934;DHT22;7560;51.364;12.384;2023-03-12T09:32:02;6.20;99.90
14934;DHT22;7560;51.364;12.384;2023-03-12T09:37:06;6.30;99.90
14934;DHT22;7560;51.364;12.384;2023-03-12T09:42:15;6.60;99.90
14934;DHT22;7560;51.364;12.384;2023-03-12T09:47:27;6.80;99.90
14934;DHT22;7560;51.364;12.384;2023-03-12T09:52:36;7.00;99.90
14934;DHT22;7560;51.364;12.384;2023-03-12T09:57:40;7.20;99.90
14934;DHT22;7560;51.364;12.384;2023-03-12T10:24:32;8.00;99.90
14934;DHT22;7560;51.364;12.384;2023-03-12T10:29:38;7.90;99.90
14934;DHT22;7560;51.364;12.384;2023-03-12T10:34:45;7.90;99.90
14934;DHT22;7560;51.364;12.384;2023-03-12T10:40:00;8.00;99.90
14934;DHT22;7560;51.364;12.384;2023-03-12T10:50:20;8.40;99.90
14934;DHT22;7560;51.364;12.384;2023-03-12T10:55:28;8.50;99.90
14934;DHT22;7560;51.364;12.384;2023-03-12T11:00:31;8.60;99.90
14934;DHT22;7560;51.364;12.384;2023-03-12T11:05:36;8.60;99.90
14934;DHT22;7560;51.364;12.384;2023-03-12T11:10:53;8.90;99.90
14934;DHT22;7560;51.364;12.384;2023-03-12T11:15:59;8.50;99.90
14934;DHT22;7560;51.364;12.384;2023-03-12T11:21:11;8.10;99.90
14934;DHT22;7560;51.364;12.384;2023-03-12T11:26:24;7.90;99.90
14934;DHT22;7560;51.364;12.384;2023-03-12T11:31:34;8.00;99.90
14934;DHT22;7560;51.364;12.384;2023-03-12T11:36:40;8.20;99.90
14934;DHT22;7560;51.364;12.384;2023-03-12T11:42:10;8.60;99.90
14934;DHT22;7560;51.364;12.384;2023-03-12T11:47:33;8.80;99.90
14934;DHT22;7560;51.364;12.384;2023-03-12T11:58:19;9.70;99.90
14934;DHT22;7560;51.364;12.384;2023-03-12T12:03:44;9.70;99.90
14934;DHT22;7560;51.364;12.384;2023-03-12T12:09:16;9.70;99.90
14934;DHT22;7560;51.364;12.384;2023-03-12T12:14:48;9.80;99.90
14934;DHT22;7560;51.364;12.384;2023-03-12T12:35:29;9.60;99.90
14934;DHT22;7560;51.364;12.384;2023-03-12T12:40:41;9.80;99.90
14934;DHT22;7560;51.364;12.384;2023-03-12T12:45:44;9.50;99.90
14934;DHT22;7560;51.364;12.384;2023-03-12T12:50:50;9.40;99.90
14934;DHT22;7560;51.364;12.384;2023-03-12T12:56:17;9.30;99.90
14934;DHT22;7560;51.364;12.384;2023-03-12T13:01:21;9.50;99.90
14934;DHT22;7560;51.364;12.384;2023-03-12T13:06:27;9.40;99.90
14934;DHT22;7560;51.364;12.384;2023-03-12T13:11:43;9.10;99.90
14934;DHT22;7560;51.364;12.384;2023-03-12T13:16:47;9.00;99.90
14934;DHT22;7560;51.364;12.384;2023-03-12T13:22:03;8.90;99.90
14934;DHT22;7560;51.364;12.384;2023-03-12T13:27:36;8.80;99.90
14934;DHT22;7560;51.364;12.384;2023-03-12T13:38:38;8.50;99.90
14934;DHT22;7560;51.364;12.384;2023-03-12T13:43:47;8.20;99.90
14934;DHT22;7560;51.364;12.384;2023-03-12T13:48:49;8.20;99.90
14934;DHT22;7560;51.364;12.384;2023-03-12T13:53:58;8.00;99.90
14934;DHT22;7560;51.364;12.384;2023-03-12T13:59:03;7.80;99.90
14934;DHT22;7560;51.364;12.384;2023-03-12T14:04:18;8.00;99.90
14934;DHT22;7560;51.364;12.384;2023-03-12T14:20:16;8.20;99.90
14934;DHT22;7560;51.364;12.384;2023-03-12T14:25:46;7.90;99.90
14934;DHT22;7560;51.364;12.384;2023-03-12T14:36:03;7.90;99.90
14934;DHT22;7560;51.364;12.384;2023-03-12T14:41:11;7.80;99.90
14934;DHT22;7560;51.364;12.384;2023-03-12T14:46:18;7.70;99.90
14934;DHT22;7560;51.364;12.384;2023-03-12T14:51:24;7.70;99.90
14934;DHT22;7560;51.364;12.384;2023-03-12T14:56:30;7.90;99.90
14934;DHT22;7560;51.364;12.384;2023-03-12T15:01:34;8.00;99.90
14934;DHT22;7560;51.364;12.384;2023-03-12T15:06:49;7.90;99.90
14934;DHT22;7560;51.364;12.384;2023-03-12T15:17:04;7.60;99.90
14934;DHT22;7560;51.364;12.384;2023-03-12T15:22:16;7.60;99.90
14934;DHT22;7560;51.364;12.384;2023-03-12T15:32:24;7.60;99.90
14934;DHT22;7560;51.364;12.384;2023-03-12T15:37:28;7.50;99.90
14934;DHT22;7560;51.364;12.384;2023-03-12T15:42:39;7.50;99.90
14934;DHT22;7560;51.364;12.384;2023-03-12T15:47:41;7.50;99.90
14934;DHT22;7560;51.364;12.384;2023-03-12T15:53:22;7.50;99.90
14934;DHT22;7560;51.364;12.384;2023-03-12T15:58:40;7.40;99.90
14934;DHT22;7560;51.364;12.384;2023-03-12T16:03:43;7.40;99.90
14934;DHT22;7560;51.364;12.384;2023-03-12T16:08:50;7.40;99.90
14934;DHT22;7560;51.364;12.384;2023-03-12T16:14:16;7.30;99.90
14934;DHT22;7560;51.364;12.384;2023-03-12T16:19:20;7.30;99.90
14934;DHT22;7560;51.364;12.384;2023-03-12T16:24:23;7.30;99.90
14934;DHT22;7560;51.364;12.384;2023-03-12T16:29:32;7.30;99.90
14934;DHT22;7560;51.364;12.384;2023-03-12T16:34:34;7.30;99.90
14934;DHT22;7560;51.364;12.384;2023-03-12T16:39:36;7.30;99.90
14934;DHT22;7560;51.364;12.384;2023-03-12T16:44:39;7.20;99.90
14934;DHT22;7560;51.364;12.384;2023-03-12T16:49:42;7.20;99.90
14934;DHT22;7560;51.364;12.384;2023-03-12T16:54:46;7.20;99.90
14934;DHT22;7560;51.364;12.384;2023-03-12T16:59:49;7.20;99.90
14934;DHT22;7560;51.364;12.384;2023-03-12T17:04:50;7.20;99.90
14934;DHT22;7560;51.364;12.384;2023-03-12T17:09:53;7.20;99.90
14934;DHT22;7560;51.364;12.384;2023-03-12T17:14:56;7.20;99.90
14934;DHT22;7560;51.364;12.384;2023-03-12T17:19:58;7.20;99.90
14934;DHT22;7560;51.364;12.384;2023-03-12T17:25:04;7.20;99.90
14934;DHT22;7560;51.364;12.384;2023-03-12T17:30:07;7.20;99.90
14934;DHT22;7560;51.364;12.384;2023-03-12T17:35:09;7.20;99.90
14934;DHT22;7560;51.364;12.384;2023-03-12T17:40:11;7.20;99.90
14934;DHT22;7560;51.364;12.384;2023-03-12T17:45:13;7.20;99.90
14934;DHT22;7560;51.364;12.384;2023-03-12T17:50:15;7.20;99.90
14934;DHT22;7560;51.364;12.384;2023-03-12T17:55:17;7.10;99.90
14934;DHT22;7560;51.364;12.384;2023-03-12T18:00:19;7.10;99.90
14934;DHT22;7560;51.364;12.384;2023-03-12T18:05:23;7.10;99.90
14934;DHT22;7560;51.364;12.384;2023-03-12T18:10:25;7.10;99.90
14934;DHT22;7560;51.364;12.384;2023-03-12T18:15:27;7.20;99.90
14934;DHT22;7560;51.364;12.384;2023-03-12T18:20:29;7.20;99.90
14934;DHT22;7560;51.364;12.384;2023-03-12T18:25:39;7.30;99.90
14934;DHT22;7560;51.364;12.384;2023-03-12T18:30:44;7.30;99.90
14934;DHT22;7560;51.364;12.384;2023-03-12T18:35:46;7.40;99.90
14934;DHT22;7560;51.364;12.384;2023-03-12T18:40:48;7.40;99.90
14934;DHT22;7560;51.364;12.384;2023-03-12T18:45:50;7.40;99.90
14934;DHT22;7560;51.364;12.384;2023-03-12T18:50:52;7.50;99.90
14934;DHT22;7560;51.364;12.384;2023-03-12T18:55:58;7.40;99.90
14934;DHT22;7560;51.364;12.384;2023-03-12T19:01:00;7.50;99.90
14934;DHT22;7560;51.364;12.384;2023-03-12T19:06:09;7.60;99.90
14934;DHT22;7560;51.364;12.384;2023-03-12T19:11:13;7.50;99.90
14934;DHT22;7560;51.364;12.384;2023-03-12T19:16:15;7.50;99.90
14934;DHT22;7560;51.364;12.384;2023-03-12T19:21:19;7.50;99.90
14934;DHT22;7560;51.364;12.384;2023-03-12T19:26:21;7.50;99.90
14934;DHT22;7560;51.364;12.384;2023-03-12T19:31:22;7.50;99.90
14934;DHT22;7560;51.364;12.384;2023-03-12T19:36:25;7.50;99.90
14934;DHT22;7560;51.364;12.384;2023-03-12T19:41:27;7.60;99.90
14934;DHT22;7560;51.364;12.384;2023-03-12T19:46:29;7.60;99.90
14934;DHT22;7560;51.364;12.384;2023-03-12T19:51:31;7.60;99.90
14934;DHT22;7560;51.364;12.384;2023-03-12T19:56:33;7.60;99.90
14934;DHT22;7560;51.364;12.384;2023-03-12T20:01:35;7.60;99.90
14934;DHT22;7560;51.364;12.384;2023-03-12T20:06:38;7.70;99.90
14934;DHT22;7560;51.364;12.384;2023-03-12T20:11:40;7.70;99.90
14934;DHT22;7560;51.364;12.384;2023-03-12T20:16:42;7.70;99.90
14934;DHT22;7560;51.364;12.384;2023-03-12T20:21:44;7.80;99.90
14934;DHT22;7560;51.364;12.384;2023-03-12T20:26:46;7.70;99.90
14934;DHT22;7560;51.364;12.384;2023-03-12T20:31:47;7.70;99.90
14934;DHT22;7560;51.364;12.384;2023-03-12T20:36:49;7.70;99.90
14934;DHT22;7560;51.364;12.384;2023-03-12T20:41:51;7.70;99.90
14934;DHT22;7560;51.364;12.384;2023-03-12T20:46:53;7.60;99.90
14934;DHT22;7560;51.364;12.384;2023-03-12T20:51:54;7.70;99.90
14934;DHT22;7560;51.364;12.384;2023-03-12T20:56:56;7.80;99.90
14934;DHT22;7560;51.364;12.384;2023-03-12T21:01:59;7.80;99.90
14934;DHT22;7560;51.364;12.384;2023-03-12T21:07:01;7.80;99.90
14934;DHT22;7560;51.364;12.384;2023-03-12T21:12:03;7.80;99.90
14934;DHT22;7560;51.364;12.384;2023-03-12T21:17:04;7.80;99.90
14934;DHT22;7560;51.364;12.384;2023-03-12T21:22:07;7.90;99.90
14934;DHT22;7560;51.364;12.384;2023-03-12T21:27:09;7.80;99.90
14934;DHT22;7560;51.364;12.384;2023-03-12T21:32:14;7.80;99.90
14934;DHT22;7560;51.364;12.384;2023-03-12T21:37:16;7.80;99.90
14934;DHT22;7560;51.364;12.384;2023-03-12T21:42:18;7.70;99.90
14934;DHT22;7560;51.364;12.384;2023-03-12T21:47:21;7.70;99.90
14934;DHT22;7560;51.364;12.384;2023-03-12T21:52:23;7.70;99.90
14934;DHT22;7560;51.364;12.384;2023-03-12T21:57:25;7.60;99.90
14934;DHT22;7560;51.364;12.384;2023-03-12T22:02:29;7.50;99.90
14934;DHT22;7560;51.364;12.384;2023-03-12T22:07:32;7.50;99.90
14934;DHT22;7560;51.364;12.384;2023-03-12T22:12:34;7.50;99.90
14934;DHT22;7560;51.364;12.384;2023-03-12T22:17:35;7.50;99.90
14934;DHT22;7560;51.364;12.384;2023-03-12T22:22:37;7.50;99.90
14934;DHT22;7560;51.364;12.384;2023-03-12T22:27:39;7.60;99.90
14934;DHT22;7560;51.364;12.384;2023-03-12T22:32:41;7.60;99.90
14934;DHT22;7560;51.364;12.384;2023-03-12T22:37:43;7.60;99.90
14934;DHT22;7560;51.364;12.384;2023-03-12T22:42:50;7.60;99.90
14934;DHT22;7560;51.364;12.384;2023-03-12T22:47:51;7.60;99.90
14934;DHT22;7560;51.364;12.384;2023-03-12T22:52:53;7.50;99.90
14934;DHT22;7560;51.364;12.384;2023-03-12T22:57:55;7.50;99.90
14934;DHT22;7560;51.364;12.384;2023-03-12T23:02:57;7.60;99.90
14934;DHT22;7560;51.364;12.384;2023-03-12T23:07:58;7.60;99.90
14934;DHT22;7560;51.364;12.384;2023-03-12T23:13:00;7.70;99.90
14934;DHT22;7560;51.364;12.384;2023-03-12T23:18:02;7.60;99.90
14934;DHT22;7560;51.364;12.384;2023-03-12T23:23:03;7.70;99.90
14934;DHT22;7560;51.364;12.384;2023-03-12T23:28:05;7.70;99.90
14934;DHT22;7560;51.364;12.384;2023-03-12T23:33:07;7.70;99.90
14934;DHT22;7560;51.364;12.384;2023-03-12T23:38:09;7.80;99.90
14934;DHT22;7560;51.364;12.384;2023-03-12T23:43:11;7.80;99.90
14934;DHT22;7560;51.364;12.384;2023-03-12T23:48:13;7.90;99.90
14934;DHT22;7560;51.364;12.384;2023-03-12T23:53:14;7.80;99.90
14934;DHT22;7560;51.364;12.384;2023-03-12T23:58:16;7.80;99.90
